createdAt,value
2022-10-14T00:01:07.070Z,89.73
2022-10-14T00:03:36.315Z,89.94
2022-10-14T00:06:06.394Z,89.57
2022-10-14T00:08:34.441Z,90.20
2022-10-14T00:11:07.602Z,89.97
2022-10-14T00:13:36.083Z,90.25
2022-10-14T00:16:05.384Z,90.39
2022-10-14T00:18:33.714Z,90.73
2022-10-14T00:21:03.632Z,91.27
2022-10-14T00:23:31.554Z,91.23
2022-10-14T00:25:59.534Z,90.93
2022-10-14T00:28:28.907Z,90.98
2022-10-14T00:30:57.758Z,91.46
2022-10-14T00:33:26.057Z,91.66
2022-10-14T00:35:58.927Z,91.06
2022-10-14T00:38:27.300Z,92.07
2022-10-14T00:40:58.592Z,91.50
2022-10-14T00:43:29.849Z,92.38
2022-10-14T00:45:57.712Z,92.51
2022-10-14T00:48:27.584Z,91.81
2022-10-14T00:50:58.059Z,92.25
2022-10-14T00:53:26.195Z,91.94
2022-10-14T00:55:54.061Z,91.88
2022-10-14T00:58:22.243Z,92.57
2022-10-14T01:00:51.863Z,92.74
2022-10-14T01:03:22.325Z,92.46
2022-10-14T01:05:57.753Z,92.27
2022-10-14T01:08:32.087Z,92.65
2022-10-14T01:11:08.850Z,93.02
2022-10-14T01:13:39.992Z,92.61
2022-10-14T01:16:19.458Z,93.33
2022-10-14T01:18:59.865Z,92.90
2022-10-14T01:21:33.616Z,92.93
2022-10-14T01:24:33.604Z,91.96
2022-10-14T01:27:20.982Z,91.81
2022-10-14T01:30:02.552Z,91.89
2022-10-14T01:32:33.192Z,91.76
2022-10-14T01:35:09.803Z,92.12
2022-10-14T01:37:44.175Z,92.77
2022-10-14T01:40:18.787Z,93.73
2022-10-14T01:42:48.747Z,93.73
2022-10-14T01:45:22.149Z,93.96
2022-10-14T01:47:52.492Z,94.34
2022-10-14T01:50:25.118Z,94.44
2022-10-14T01:52:57.282Z,94.07
2022-10-14T01:55:29.321Z,93.72
2022-10-14T01:57:58.747Z,93.02
2022-10-14T02:00:28.031Z,93.22
2022-10-14T02:02:55.950Z,93.83
2022-10-14T02:05:29.938Z,92.94
2022-10-14T02:08:05.507Z,93.70
2022-10-14T02:10:52.652Z,93.72
2022-10-14T02:13:35.902Z,93.05
2022-10-14T02:16:15.704Z,93.77
2022-10-14T02:18:52.547Z,93.84
2022-10-14T02:21:25.665Z,93.48
2022-10-14T02:23:58.914Z,93.14
2022-10-14T02:26:28.137Z,92.89
2022-10-14T02:29:00.960Z,92.47
2022-10-14T02:31:32.470Z,91.87
2022-10-14T02:34:04.193Z,91.70
2022-10-14T02:36:33.918Z,92.35
2022-10-14T02:39:03.042Z,92.24
2022-10-14T02:41:36.164Z,92.03
2022-10-14T02:44:06.140Z,91.77
2022-10-14T02:46:36.408Z,91.49
2022-10-14T02:49:04.357Z,91.78
2022-10-14T02:51:32.177Z,91.67
2022-10-14T02:54:01.706Z,91.89
2022-10-14T02:56:30.393Z,91.96
2022-10-14T02:58:58.244Z,91.64
2022-10-14T03:01:26.333Z,91.92
2022-10-14T03:03:58.352Z,92.26
2022-10-14T03:06:26.425Z,92.41
2022-10-14T03:08:54.244Z,92.07
2022-10-14T03:11:22.186Z,92.02
2022-10-14T03:13:50.145Z,92.47
2022-10-14T03:16:18.009Z,93.31
2022-10-14T03:18:45.912Z,93.41
2022-10-14T03:21:15.281Z,93.63
2022-10-14T03:23:43.124Z,93.63
2022-10-14T03:26:14.042Z,93.32
2022-10-14T03:28:42.381Z,93.87
2022-10-14T03:31:10.310Z,94.04
2022-10-14T03:33:38.283Z,94.23
2022-10-14T03:36:06.614Z,94.45
2022-10-14T03:38:35.878Z,94.74
2022-10-14T03:41:03.822Z,94.67
2022-10-14T03:43:31.966Z,94.14
2022-10-14T03:45:59.832Z,93.67
2022-10-14T03:48:27.762Z,94.15
2022-10-14T03:50:55.759Z,93.69
2022-10-14T03:53:23.634Z,94.32
2022-10-14T03:55:53.050Z,94.00
2022-10-14T03:58:21.004Z,93.14
2022-10-14T04:00:48.926Z,93.27
2022-10-14T04:03:16.780Z,92.54
2022-10-14T04:05:44.926Z,93.26
2022-10-14T04:08:12.987Z,93.45
2022-10-14T04:10:40.959Z,92.89
2022-10-14T04:13:10.374Z,93.22
2022-10-14T04:15:38.795Z,93.63
2022-10-14T04:18:06.763Z,93.69
2022-10-14T04:20:34.634Z,93.87
2022-10-14T04:23:02.600Z,93.71
2022-10-14T04:25:30.668Z,94.14
2022-10-14T04:27:58.657Z,94.28
2022-10-14T04:30:27.847Z,94.21
2022-10-14T04:32:55.853Z,93.46
2022-10-14T04:35:24.002Z,92.87
2022-10-14T04:37:51.872Z,93.54
2022-10-14T04:40:20.553Z,93.82
2022-10-14T04:42:48.602Z,93.99
2022-10-14T04:45:16.562Z,94.32
2022-10-14T04:47:48.622Z,94.85
2022-10-14T04:50:16.963Z,95.07
2022-10-14T04:52:44.827Z,94.64
2022-10-14T04:55:13.315Z,95.38
2022-10-14T04:57:43.965Z,95.68
2022-10-14T05:00:13.992Z,95.72
2022-10-14T05:02:41.964Z,95.56
2022-10-14T05:05:11.895Z,95.83
2022-10-14T05:07:40.345Z,95.74
2022-10-14T05:10:10.362Z,95.90
2022-10-14T05:12:39.635Z,95.92
2022-10-14T05:15:18.944Z,95.88
2022-10-14T05:17:50.146Z,96.66
2022-10-14T05:20:21.036Z,96.86
2022-10-14T05:22:49.035Z,97.40
2022-10-14T05:25:17.269Z,97.86
2022-10-14T05:27:45.375Z,97.90
2022-10-14T05:30:14.481Z,98.05
2022-10-14T05:32:42.572Z,98.31
2022-10-14T05:35:10.879Z,98.71
2022-10-14T05:37:41.478Z,98.49
2022-10-14T05:40:11.341Z,98.44
2022-10-14T05:42:39.546Z,98.39
2022-10-14T05:45:08.072Z,98.82
2022-10-14T05:47:36.100Z,98.34
2022-10-14T05:50:04.563Z,98.49
2022-10-14T05:52:35.851Z,98.77
2022-10-14T05:55:05.882Z,98.83
2022-10-14T05:57:34.154Z,98.31
2022-10-14T06:00:02.093Z,98.38
2022-10-14T06:02:30.182Z,99.01
2022-10-14T06:04:58.727Z,98.69
2022-10-14T06:07:26.723Z,98.10
2022-10-14T06:09:54.644Z,99.22
2022-10-14T06:12:24.245Z,99.01
2022-10-14T06:14:52.255Z,98.43
2022-10-14T06:17:20.239Z,98.77
2022-10-14T06:19:48.128Z,98.05
2022-10-14T06:22:16.051Z,98.01
2022-10-14T06:24:44.057Z,97.73
2022-10-14T06:27:11.875Z,97.16
2022-10-14T06:29:44.092Z,97.25
2022-10-14T06:32:14.739Z,98.08
2022-10-14T06:34:42.667Z,97.83
2022-10-14T06:37:10.621Z,97.24
2022-10-14T06:39:38.531Z,97.08
2022-10-14T06:42:10.724Z,96.68
2022-10-14T06:44:45.500Z,96.39
2022-10-14T06:47:13.642Z,96.06
2022-10-14T06:49:41.580Z,95.83
2022-10-14T06:52:10.065Z,95.94
2022-10-14T06:54:39.635Z,95.73
2022-10-14T06:57:08.344Z,95.84
2022-10-14T06:59:39.186Z,95.15
2022-10-14T07:02:09.871Z,94.84
2022-10-14T07:04:38.375Z,94.02
2022-10-14T07:07:07.452Z,93.64
2022-10-14T07:09:35.474Z,93.26
2022-10-14T07:12:03.476Z,92.95
2022-10-14T07:14:31.504Z,92.60
2022-10-14T07:17:00.562Z,92.59
2022-10-14T07:19:29.879Z,92.15
2022-10-14T07:21:57.884Z,91.83
2022-10-14T07:24:25.876Z,91.01
2022-10-14T07:26:54.070Z,90.78
2022-10-14T07:29:23.706Z,90.87
2022-10-14T07:31:54.603Z,91.07
2022-10-14T07:34:22.584Z,90.26
2022-10-14T07:36:55.084Z,90.39
2022-10-14T07:39:23.123Z,89.43
2022-10-14T07:41:50.987Z,89.28
2022-10-14T07:44:21.334Z,89.74
2022-10-14T07:46:53.229Z,90.00
2022-10-14T07:49:22.323Z,89.67
2022-10-14T07:51:50.361Z,89.70
2022-10-14T07:54:22.501Z,89.31
2022-10-14T07:56:50.608Z,89.90
2022-10-14T07:59:20.087Z,89.15
2022-10-14T08:01:51.311Z,88.48
2022-10-14T08:04:20.338Z,87.98
2022-10-14T08:06:57.215Z,87.69
2022-10-14T08:11:54.501Z,87.47
2022-10-14T08:14:22.475Z,86.47
2022-10-14T08:16:53.201Z,85.45
2022-10-14T08:19:21.905Z,83.96
2022-10-14T08:21:50.023Z,82.29
2022-10-14T08:24:17.921Z,80.75
2022-10-14T08:26:53.764Z,80.85
2022-10-14T08:29:23.258Z,80.63
2022-10-14T08:31:52.370Z,78.34
2022-10-14T08:34:21.269Z,76.09
2022-10-14T08:36:49.472Z,74.77
2022-10-14T08:39:19.275Z,74.87
2022-10-14T08:42:09.008Z,73.25
2022-10-14T08:44:43.134Z,73.24
2022-10-14T08:47:15.688Z,71.63
2022-10-14T08:49:54.061Z,69.14
2022-10-14T08:52:26.704Z,69.31
2022-10-14T08:54:59.884Z,67.95
2022-10-14T08:57:36.008Z,68.39
2022-10-14T09:00:05.026Z,68.62
2022-10-14T09:02:43.114Z,68.09
2022-10-14T09:05:16.233Z,69.98
2022-10-14T09:07:46.274Z,71.13
2022-10-14T09:10:30.288Z,70.50
2022-10-14T09:13:04.620Z,71.37
2022-10-14T09:15:38.341Z,72.21
2022-10-14T09:18:13.460Z,72.17
2022-10-14T09:20:42.495Z,72.58
2022-10-14T09:23:17.231Z,71.71
2022-10-14T09:25:55.263Z,70.47
2022-10-14T09:28:33.221Z,71.38
2022-10-14T09:31:01.498Z,72.27
2022-10-14T09:33:30.488Z,71.15
2022-10-14T09:38:34.585Z,69.19
2022-10-14T09:41:03.047Z,68.80
2022-10-14T09:43:32.406Z,67.99
2022-10-14T09:46:03.164Z,68.22
2022-10-14T09:48:34.365Z,67.98
2022-10-14T09:51:04.386Z,67.88
2022-10-14T09:53:37.991Z,69.43
2022-10-14T09:56:08.189Z,68.87
2022-10-14T09:58:44.517Z,68.12
2022-10-14T10:01:17.243Z,67.95
2022-10-14T10:03:46.045Z,68.38
2022-10-14T10:06:16.972Z,68.19
2022-10-14T10:08:58.275Z,67.03
2022-10-14T10:11:30.349Z,67.70
2022-10-14T10:14:16.691Z,68.45
2022-10-14T10:16:44.747Z,68.46
2022-10-14T10:19:28.154Z,67.86
2022-10-14T10:21:56.239Z,68.42
2022-10-14T10:24:27.478Z,68.76
2022-10-14T10:26:58.320Z,68.92
2022-10-14T10:29:35.572Z,69.18
2022-10-14T10:32:15.415Z,68.40
2022-10-14T10:35:09.503Z,68.76
2022-10-14T10:37:46.620Z,67.68
2022-10-14T10:40:33.049Z,65.95
2022-10-14T10:43:22.921Z,66.31
2022-10-14T10:46:04.465Z,66.96
2022-10-14T10:48:41.271Z,66.69
2022-10-14T10:51:13.991Z,67.75
2022-10-14T10:54:14.043Z,66.62
2022-10-14T10:56:47.210Z,66.71
2022-10-14T10:59:35.511Z,66.37
2022-10-14T11:02:35.273Z,67.68
2022-10-14T11:05:10.773Z,66.46
2022-10-14T11:08:03.671Z,66.25
2022-10-14T11:10:54.443Z,66.54
2022-10-14T11:13:32.276Z,66.81
2022-10-14T11:16:07.674Z,66.08
2022-10-14T11:18:46.451Z,65.57
2022-10-14T11:21:22.027Z,64.50
2022-10-14T11:23:59.950Z,63.69
2022-10-14T11:26:48.053Z,62.99
2022-10-14T11:29:31.508Z,64.56
2022-10-14T11:32:09.439Z,64.58
2022-10-14T11:34:48.901Z,65.29
2022-10-14T11:37:29.961Z,64.84
2022-10-14T11:40:00.274Z,65.92
2022-10-14T11:42:38.804Z,65.51
2022-10-14T11:45:24.417Z,65.40
2022-10-14T11:47:56.127Z,66.35
2022-10-14T11:50:30.230Z,66.94
2022-10-14T11:53:03.116Z,66.50
2022-10-14T11:55:36.001Z,66.33
2022-10-14T11:58:08.005Z,67.16
2022-10-14T12:00:55.626Z,67.29
2022-10-14T12:03:35.949Z,67.53
2022-10-14T12:06:12.325Z,67.30
2022-10-14T12:08:51.973Z,67.46
2022-10-14T12:11:29.059Z,66.56
2022-10-14T12:14:06.071Z,65.98
2022-10-14T12:16:34.478Z,66.27
2022-10-14T12:19:02.662Z,66.10
2022-10-14T12:21:38.786Z,66.53
2022-10-14T12:24:14.386Z,66.99
2022-10-14T12:26:52.368Z,65.94
2022-10-14T12:29:23.824Z,66.43
2022-10-14T12:32:07.727Z,66.20
2022-10-14T12:34:37.900Z,65.99
2022-10-14T12:37:52.236Z,64.49
2022-10-14T12:40:31.886Z,65.10
2022-10-14T12:43:24.636Z,64.45
2022-10-14T12:46:20.246Z,64.92
2022-10-14T12:48:52.897Z,65.52
2022-10-14T12:51:23.653Z,66.02
2022-10-14T12:54:05.126Z,65.14
2022-10-14T12:56:38.888Z,64.66
2022-10-14T12:59:10.020Z,64.81
2022-10-14T13:01:38.589Z,63.60
2022-10-14T13:04:08.977Z,63.32
2022-10-14T13:06:40.117Z,63.00
2022-10-14T13:09:32.653Z,61.77
2022-10-14T13:12:42.358Z,60.90
2022-10-14T13:15:49.706Z,62.17
2022-10-14T13:18:52.825Z,62.27
2022-10-14T13:21:52.655Z,62.59
2022-10-14T13:24:28.150Z,61.97
2022-10-14T13:27:14.891Z,63.02
2022-10-14T13:30:01.753Z,62.92
2022-10-14T13:32:39.633Z,64.07
2022-10-14T13:35:18.900Z,64.55
2022-10-14T13:37:54.469Z,64.42
2022-10-14T13:40:27.308Z,64.42
2022-10-14T13:42:58.856Z,64.18
2022-10-14T13:45:35.935Z,64.42
2022-10-14T13:48:13.882Z,63.90
2022-10-14T13:50:43.397Z,64.53
2022-10-14T13:53:17.832Z,64.46
2022-10-14T13:55:51.536Z,64.30
2022-10-14T13:58:24.709Z,64.81
2022-10-14T14:01:03.948Z,64.20
2022-10-14T14:03:36.848Z,64.83
2022-10-14T14:06:11.509Z,64.89
2022-10-14T14:08:50.308Z,64.94
2022-10-14T14:11:20.848Z,65.00
2022-10-14T14:14:00.310Z,64.81
2022-10-14T14:16:33.269Z,65.15
2022-10-14T14:19:08.692Z,64.75
2022-10-14T14:21:37.320Z,65.42
2022-10-14T14:24:17.715Z,64.98
2022-10-14T14:26:45.916Z,65.42
2022-10-14T14:29:18.427Z,65.05
2022-10-14T14:32:05.395Z,65.36
2022-10-14T14:34:37.181Z,65.22
2022-10-14T14:37:25.135Z,65.91
2022-10-14T14:40:01.665Z,65.55
2022-10-14T14:42:33.569Z,65.80
2022-10-14T14:45:05.925Z,65.97
2022-10-14T14:47:34.875Z,66.17
2022-10-14T14:52:53.620Z,66.04
2022-10-14T14:55:42.051Z,66.09
2022-10-14T14:58:24.510Z,67.05
2022-10-14T15:00:54.716Z,67.78
2022-10-14T15:03:24.264Z,67.82
2022-10-14T15:05:57.338Z,67.50
2022-10-14T15:08:27.567Z,67.77
2022-10-14T15:10:58.070Z,67.92
2022-10-14T15:13:29.969Z,68.30
2022-10-14T15:15:57.957Z,68.96
2022-10-14T15:18:28.045Z,68.81
2022-10-14T15:21:14.981Z,69.56
2022-10-14T15:23:47.037Z,69.21
2022-10-14T15:26:26.351Z,69.51
2022-10-14T15:29:14.393Z,69.43
2022-10-14T15:31:44.248Z,70.12
2022-10-14T15:34:20.404Z,70.53
2022-10-14T15:36:52.709Z,70.69
2022-10-14T15:39:21.280Z,71.25
2022-10-14T15:41:49.250Z,70.89
2022-10-14T15:44:17.821Z,71.55
2022-10-14T15:47:04.621Z,71.38
2022-10-14T15:49:34.642Z,71.84
2022-10-14T15:52:04.582Z,72.21
2022-10-14T15:54:32.582Z,72.36
2022-10-14T15:57:00.929Z,72.43
2022-10-14T15:59:29.020Z,72.75
2022-10-14T16:01:56.968Z,72.88
2022-10-14T16:04:28.043Z,72.93
2022-10-14T16:06:57.712Z,73.14
2022-10-14T16:09:28.781Z,73.40
2022-10-14T16:11:59.836Z,73.63
2022-10-14T16:14:28.535Z,73.69
2022-10-14T16:16:56.434Z,73.29
2022-10-14T16:19:24.373Z,73.38
2022-10-14T16:21:52.344Z,73.58
2022-10-14T16:24:22.220Z,73.46
2022-10-14T16:26:51.581Z,74.13
2022-10-14T16:29:20.983Z,74.16
2022-10-14T16:31:50.118Z,74.29
2022-10-14T16:34:18.564Z,73.89
2022-10-14T16:36:46.715Z,74.45
2022-10-14T16:39:14.678Z,74.93
2022-10-14T16:41:43.092Z,74.77
2022-10-14T16:44:24.831Z,74.85
2022-10-14T16:47:10.735Z,74.57
2022-10-14T16:49:39.213Z,74.62
2022-10-14T16:52:07.405Z,74.61
2022-10-14T16:54:35.477Z,74.42
2022-10-14T16:57:03.551Z,74.27
2022-10-14T16:59:33.861Z,74.14
2022-10-14T17:02:02.212Z,75.19
2022-10-14T17:04:30.190Z,76.04
2022-10-14T17:06:58.136Z,76.42
2022-10-14T17:09:26.196Z,75.36
2022-10-14T17:11:54.931Z,75.77
2022-10-14T17:14:24.313Z,75.71
2022-10-14T17:16:53.637Z,76.21
2022-10-14T17:19:24.150Z,75.83
2022-10-14T17:21:52.078Z,75.68
2022-10-14T17:24:19.988Z,75.99
2022-10-14T17:26:47.862Z,76.07
2022-10-14T17:29:16.063Z,76.18
2022-10-14T17:31:44.830Z,76.01
2022-10-14T17:34:14.143Z,76.00
2022-10-14T17:36:42.143Z,76.48
2022-10-14T17:39:21.304Z,76.43
2022-10-14T17:41:55.451Z,76.58
2022-10-14T17:44:23.704Z,76.66
2022-10-14T17:46:51.707Z,76.62
2022-10-14T17:49:21.297Z,77.40
2022-10-14T17:51:52.715Z,77.72
2022-10-14T17:54:20.865Z,77.86
2022-10-14T17:56:48.785Z,78.01
2022-10-14T17:59:16.752Z,78.48
2022-10-14T18:04:35.523Z,79.31
2022-10-14T18:07:06.468Z,79.50
2022-10-14T18:09:35.174Z,79.44
2022-10-14T18:12:08.765Z,79.82
2022-10-14T18:14:37.465Z,79.91
2022-10-14T18:17:05.945Z,79.78
2022-10-14T18:19:35.264Z,80.54
2022-10-14T18:22:03.426Z,81.27
2022-10-14T18:24:31.469Z,81.09
2022-10-14T18:26:59.360Z,81.10
2022-10-14T18:29:27.714Z,81.62
2022-10-14T18:31:56.245Z,82.21
2022-10-14T18:34:25.567Z,82.52
2022-10-14T18:36:55.129Z,82.77
2022-10-14T18:39:23.211Z,82.49
2022-10-14T18:41:51.092Z,83.05
2022-10-14T18:44:22.281Z,83.33
2022-10-14T18:46:50.582Z,83.68
2022-10-14T18:49:18.650Z,83.59
2022-10-14T18:51:47.098Z,83.24
2022-10-14T18:54:18.070Z,83.05
2022-10-14T18:56:48.107Z,82.87
2022-10-14T18:59:19.396Z,82.77
2022-10-14T19:01:48.624Z,82.72
2022-10-14T19:04:17.312Z,82.61
2022-10-14T19:06:47.244Z,82.56
2022-10-14T19:09:18.613Z,82.96
2022-10-14T19:11:47.901Z,82.99
2022-10-14T19:14:15.725Z,83.53
2022-10-14T19:16:44.486Z,83.92
2022-10-14T19:19:15.283Z,84.17
2022-10-14T19:21:43.911Z,85.51
2022-10-14T19:24:13.672Z,86.96
2022-10-14T19:26:45.392Z,88.65
2022-10-14T19:29:15.304Z,90.04
2022-10-14T19:31:44.536Z,90.99
2022-10-14T19:34:14.715Z,91.45
2022-10-14T19:36:43.781Z,91.92
2022-10-14T19:39:15.096Z,92.35
2022-10-14T19:41:46.432Z,92.69
2022-10-14T19:44:16.081Z,93.26
2022-10-14T19:46:44.741Z,93.21
2022-10-14T19:49:15.321Z,93.57
2022-10-14T19:51:44.418Z,93.26
2022-10-14T19:54:13.692Z,92.85
2022-10-14T19:56:42.284Z,93.41
2022-10-14T19:59:14.125Z,93.46
2022-10-14T20:01:42.232Z,93.20
2022-10-14T20:04:10.141Z,93.21
2022-10-14T20:06:42.847Z,93.15
2022-10-14T20:09:14.583Z,93.15
2022-10-14T20:11:42.971Z,93.65
2022-10-14T20:14:14.487Z,93.81
2022-10-14T20:16:43.492Z,94.44
2022-10-14T20:19:12.153Z,94.66
2022-10-14T20:21:40.836Z,94.48
2022-10-14T20:24:09.263Z,94.55
2022-10-14T20:26:37.765Z,95.42
2022-10-14T20:29:05.709Z,95.30
2022-10-14T20:31:35.087Z,95.40
2022-10-14T20:34:08.692Z,95.68
2022-10-14T20:36:39.364Z,95.93
2022-10-14T20:39:07.320Z,95.16
2022-10-14T20:41:35.533Z,95.47
2022-10-14T20:44:03.535Z,95.70
2022-10-14T20:46:31.607Z,95.32
2022-10-14T20:49:00.906Z,95.33
2022-10-14T20:51:29.164Z,95.52
2022-10-14T20:54:02.658Z,95.63
2022-10-14T20:56:33.511Z,96.22
2022-10-14T20:59:04.526Z,95.50
2022-10-14T21:01:34.056Z,94.75
2022-10-14T21:04:05.302Z,95.28
2022-10-14T21:06:33.217Z,94.39
2022-10-14T21:09:01.576Z,94.76
2022-10-14T21:11:29.577Z,95.18
2022-10-14T21:13:59.069Z,95.46
2022-10-14T21:16:28.461Z,95.27
2022-10-14T21:18:59.135Z,95.48
2022-10-14T21:21:30.384Z,95.48
2022-10-14T21:23:59.805Z,95.25
2022-10-14T21:26:28.586Z,95.38
2022-10-14T21:28:56.803Z,94.86
2022-10-14T21:31:25.046Z,94.95
2022-10-14T21:34:01.122Z,94.64
2022-10-14T21:36:34.444Z,94.83
2022-10-14T21:39:06.848Z,94.53
2022-10-14T21:41:35.839Z,95.11
2022-10-14T21:44:04.245Z,94.97
2022-10-14T21:46:32.280Z,94.68
2022-10-14T21:49:00.396Z,94.84
2022-10-14T21:51:31.003Z,94.79
2022-10-14T21:54:00.589Z,94.48
2022-10-14T21:56:29.070Z,95.01
2022-10-14T21:58:57.031Z,95.07
2022-10-14T22:01:27.498Z,94.84
2022-10-14T22:03:56.455Z,94.97
2022-10-14T22:06:25.141Z,95.67
2022-10-14T22:08:56.651Z,95.79
2022-10-14T22:11:27.840Z,96.28
2022-10-14T22:13:57.490Z,95.99
2022-10-14T22:16:26.759Z,96.18
2022-10-14T22:18:54.774Z,95.98
2022-10-14T22:21:25.551Z,96.10
2022-10-14T22:23:53.941Z,96.34
2022-10-14T22:26:24.761Z,96.42
2022-10-14T22:29:00.602Z,96.24
2022-10-14T22:31:30.290Z,96.53
2022-10-14T22:33:59.705Z,96.42
2022-10-14T22:36:29.350Z,96.35
2022-10-14T22:38:58.887Z,96.51
2022-10-14T22:41:30.951Z,96.62
2022-10-14T22:44:04.078Z,96.42
2022-10-14T22:46:33.471Z,96.70
2022-10-14T22:49:02.095Z,97.18
2022-10-14T22:51:31.879Z,97.25
2022-10-14T22:54:00.359Z,97.23
2022-10-14T22:56:30.593Z,97.42
2022-10-14T22:58:59.652Z,98.46
2022-10-14T23:01:29.378Z,98.70
2022-10-14T23:03:58.634Z,99.00
2022-10-14T23:06:27.142Z,98.45
2022-10-14T23:08:55.486Z,98.68
2022-10-14T23:11:25.780Z,98.62
2022-10-14T23:13:54.600Z,99.31
2022-10-14T23:16:24.344Z,99.58
2022-10-14T23:18:54.770Z,99.81
2022-10-14T23:21:24.448Z,99.71
2022-10-14T23:23:53.730Z,99.98
2022-10-14T23:26:23.271Z,99.94
2022-10-14T23:28:52.671Z,99.95
2022-10-14T23:31:22.601Z,100.00
2022-10-14T23:33:52.266Z,100.00
2022-10-14T23:36:23.258Z,100.00
2022-10-14T23:38:52.542Z,100.00
2022-10-14T23:41:22.911Z,99.74
2022-10-14T23:43:52.134Z,100.00
2022-10-14T23:46:21.178Z,100.00
2022-10-14T23:49:00.708Z,100.00
2022-10-14T23:51:37.411Z,100.00
2022-10-14T23:54:05.956Z,100.00
2022-10-14T23:56:33.983Z,99.84
2022-10-14T23:59:02.215Z,100.00
